createdAt,value
2018-04-29T00:02:15.902Z,51.20
2018-04-29T00:04:43.396Z,51.20
2018-04-29T00:07:10.924Z,50.30
2018-04-29T00:09:38.472Z,49.40
2018-04-29T00:12:05.991Z,50.80
2018-04-29T00:14:33.529Z,52.70
2018-04-29T00:17:01.051Z,52.90
2018-04-29T00:19:28.565Z,53.30
2018-04-29T00:21:56.097Z,51.90
2018-04-29T00:24:23.653Z,53.50
2018-04-29T00:26:51.191Z,52.60
2018-04-29T00:29:19.469Z,53.10
2018-04-29T00:31:47.779Z,53.60
2018-04-29T00:34:15.284Z,53.30
2018-04-29T00:36:42.787Z,52.90
2018-04-29T00:39:11.066Z,52.90
2018-04-29T00:41:39.339Z,53.40
2018-04-29T00:44:07.621Z,52.70
2018-04-29T00:46:35.890Z,53.50
2018-04-29T00:49:03.434Z,53.40
2018-04-29T00:51:42.988Z,53.30
2018-04-29T00:54:10.535Z,53.20
2018-04-29T00:56:38.172Z,53.60
2018-04-29T00:59:05.726Z,53.90
2018-04-29T01:01:34.986Z,54.60
2018-04-29T01:04:02.497Z,54.50
2018-04-29T01:06:30.052Z,54.80
2018-04-29T01:08:57.561Z,55.00
2018-04-29T01:11:25.076Z,55.00
2018-04-29T01:13:52.602Z,55.60
2018-04-29T01:16:20.213Z,55.40
2018-04-29T01:18:47.773Z,55.10
2018-04-29T01:21:15.345Z,55.80
2018-04-29T01:23:42.866Z,55.70
2018-04-29T01:26:11.890Z,55.40
2018-04-29T01:28:40.187Z,54.80
2018-04-29T01:31:07.716Z,54.70
2018-04-29T01:33:35.227Z,55.60
2018-04-29T01:36:02.732Z,55.60
2018-04-29T01:38:30.254Z,56.90
2018-04-29T01:40:57.761Z,56.00
2018-04-29T01:43:25.372Z,56.10
2018-04-29T01:45:52.880Z,56.70
2018-04-29T01:48:20.424Z,57.20
2018-04-29T01:50:47.920Z,57.30
2018-04-29T01:53:15.460Z,57.50
2018-04-29T01:55:42.978Z,57.60
2018-04-29T01:58:10.488Z,57.80
2018-04-29T02:00:38.140Z,56.90
2018-04-29T02:03:05.664Z,56.80
2018-04-29T02:05:33.972Z,56.90
2018-04-29T02:08:01.494Z,56.90
2018-04-29T02:10:29.772Z,56.50
2018-04-29T02:12:57.296Z,56.30
2018-04-29T02:15:24.836Z,56.80
2018-04-29T02:17:52.352Z,57.10
2018-04-29T02:20:19.882Z,57.50
2018-04-29T02:22:47.425Z,57.70
2018-04-29T02:25:14.940Z,58.30
2018-04-29T02:27:42.447Z,58.90
2018-04-29T02:30:09.963Z,59.10
2018-04-29T02:32:37.470Z,60.00
2018-04-29T02:35:05.010Z,60.40
2018-04-29T02:37:32.531Z,60.70
2018-04-29T02:40:00.073Z,60.90
2018-04-29T02:42:27.594Z,61.30
2018-04-29T02:44:55.116Z,62.10
2018-04-29T02:47:22.640Z,62.50
2018-04-29T02:49:50.910Z,62.40
2018-04-29T02:52:19.213Z,62.20
2018-04-29T02:54:47.524Z,61.60
2018-04-29T02:57:15.046Z,61.60
2018-04-29T02:59:43.356Z,60.70
2018-04-29T03:02:10.877Z,60.70
2018-04-29T03:04:38.389Z,60.30
2018-04-29T03:07:05.899Z,60.00
2018-04-29T03:09:33.423Z,62.30
2018-04-29T03:12:00.947Z,62.80
2018-04-29T03:14:29.235Z,62.10
2018-04-29T03:16:57.523Z,62.20
2018-04-29T03:19:25.043Z,62.10
2018-04-29T03:21:53.301Z,62.40
2018-04-29T03:24:20.818Z,62.30
2018-04-29T03:26:49.093Z,62.60
2018-04-29T03:29:17.386Z,61.20
2018-04-29T03:31:45.660Z,60.90
2018-04-29T03:34:13.960Z,61.40
2018-04-29T03:36:41.472Z,61.30
2018-04-29T03:39:09.001Z,61.50
2018-04-29T03:41:36.557Z,62.20
2018-04-29T03:44:04.068Z,62.10
2018-04-29T03:46:31.590Z,62.30
2018-04-29T03:48:59.115Z,63.00
2018-04-29T03:51:27.419Z,63.60
2018-04-29T03:53:54.944Z,63.80
2018-04-29T03:56:22.445Z,64.00
2018-04-29T03:59:01.817Z,64.40
2018-04-29T04:01:51.280Z,64.70
2018-04-29T04:04:10.307Z,65.10
2018-04-29T04:06:38.590Z,65.50
2018-04-29T04:09:06.128Z,65.50
2018-04-29T04:11:34.418Z,65.70
2018-04-29T04:14:02.713Z,65.60
2018-04-29T04:16:30.988Z,66.00
2018-04-29T04:18:59.307Z,65.80
2018-04-29T04:21:26.830Z,65.70
2018-04-29T04:23:55.108Z,65.90
2018-04-29T04:26:23.396Z,66.10
2018-04-29T04:28:51.678Z,66.30
2018-04-29T04:31:19.987Z,66.60
2018-04-29T04:33:47.500Z,66.60
2018-04-29T04:36:15.016Z,66.60
2018-04-29T04:38:42.540Z,66.60
2018-04-29T04:41:10.836Z,67.40
2018-04-29T04:43:39.128Z,67.70
2018-04-29T04:46:06.643Z,67.70
2018-04-29T04:48:34.162Z,68.10
2018-04-29T04:51:01.699Z,68.30
2018-04-29T04:53:29.980Z,68.40
2018-04-29T04:55:58.288Z,69.00
2018-04-29T04:58:25.809Z,68.90
2018-04-29T05:00:53.367Z,69.10
2018-04-29T05:03:20.985Z,69.80
2018-04-29T05:05:48.474Z,69.80
2018-04-29T05:08:16.025Z,69.90
2018-04-29T05:10:43.548Z,70.10
2018-04-29T05:13:11.844Z,69.80
2018-04-29T05:15:39.368Z,69.70
2018-04-29T05:18:06.887Z,69.60
2018-04-29T05:20:34.405Z,69.50
2018-04-29T05:25:38.188Z,69.80
2018-04-29T05:28:05.726Z,69.80
2018-04-29T05:30:33.272Z,70.10
2018-04-29T05:33:01.574Z,70.30
2018-04-29T05:35:29.141Z,70.30
2018-04-29T05:37:57.424Z,70.30
2018-04-29T05:40:24.962Z,70.20
2018-04-29T05:42:53.261Z,69.70
2018-04-29T05:45:20.770Z,69.50
2018-04-29T05:47:48.299Z,69.20
2018-04-29T05:50:16.578Z,69.50
2018-04-29T05:52:44.102Z,69.60
2018-04-29T05:55:11.640Z,70.30
2018-04-29T05:57:39.178Z,69.50
2018-04-29T06:00:06.712Z,70.20
2018-04-29T06:02:35.001Z,70.10
2018-04-29T06:05:02.532Z,70.00
2018-04-29T06:07:30.058Z,69.90
2018-04-29T06:09:57.578Z,70.50
2018-04-29T06:12:25.919Z,70.00
2018-04-29T06:14:53.446Z,70.00
2018-04-29T06:17:20.974Z,69.70
2018-04-29T06:19:48.525Z,69.70
2018-04-29T06:22:16.041Z,69.80
2018-04-29T06:24:43.558Z,70.10
2018-04-29T06:27:11.074Z,70.80
2018-04-29T06:29:38.589Z,70.20
2018-04-29T06:32:06.123Z,69.80
2018-04-29T06:34:33.641Z,69.20
2018-04-29T06:37:01.926Z,68.60
2018-04-29T06:39:29.457Z,68.60
2018-04-29T06:41:56.987Z,68.20
2018-04-29T06:44:24.509Z,69.40
2018-04-29T06:46:52.894Z,69.00
2018-04-29T06:49:20.382Z,69.00
2018-04-29T06:51:47.897Z,69.30
2018-04-29T06:54:15.401Z,68.50
2018-04-29T06:56:42.930Z,68.20
2018-04-29T06:59:10.460Z,68.10
2018-04-29T07:01:37.999Z,69.00
2018-04-29T07:04:05.529Z,67.90
2018-04-29T07:06:33.038Z,68.90
2018-04-29T07:09:00.574Z,67.90
2018-04-29T07:11:28.824Z,67.70
2018-04-29T07:13:57.120Z,68.90
2018-04-29T07:16:24.632Z,68.80
2018-04-29T07:18:52.155Z,69.00
2018-04-29T07:21:20.428Z,67.80
2018-04-29T07:23:48.708Z,67.70
2018-04-29T07:26:16.998Z,66.50
2018-04-29T07:28:45.339Z,66.30
2018-04-29T07:31:12.839Z,66.30
2018-04-29T07:33:41.126Z,64.90
2018-04-29T07:36:09.436Z,65.10
2018-04-29T07:38:36.967Z,65.10
2018-04-29T07:41:05.248Z,65.80
2018-04-29T07:43:33.523Z,65.50
2018-04-29T07:46:01.063Z,65.50
2018-04-29T07:48:28.600Z,66.70
2018-04-29T07:50:56.129Z,63.80
2018-04-29T07:53:24.438Z,65.00
2018-04-29T07:55:51.964Z,65.10
2018-04-29T07:58:20.280Z,63.20
2018-04-29T08:00:47.817Z,63.20
2018-04-29T08:03:16.099Z,64.00
2018-04-29T08:05:44.422Z,64.10
2018-04-29T08:08:11.937Z,64.20
2018-04-29T08:10:40.258Z,62.10
2018-04-29T08:13:07.769Z,62.00
2018-04-29T08:15:35.356Z,57.60
2018-04-29T08:18:02.829Z,60.20
2018-04-29T08:20:31.163Z,58.50
2018-04-29T08:22:58.701Z,58.40
2018-04-29T08:25:26.203Z,56.50
2018-04-29T08:27:53.751Z,59.10
2018-04-29T08:30:21.281Z,57.80
2018-04-29T08:32:48.812Z,59.50
2018-04-29T08:35:17.116Z,60.60
2018-04-29T08:37:44.634Z,60.60
2018-04-29T08:40:12.160Z,58.50
2018-04-29T08:42:39.671Z,60.10
2018-04-29T08:45:07.978Z,59.20
2018-04-29T08:47:36.269Z,59.50
2018-04-29T08:50:03.875Z,59.50
2018-04-29T08:52:31.346Z,58.90
2018-04-29T08:54:58.998Z,58.70
2018-04-29T08:57:27.348Z,59.40
2018-04-29T08:59:54.864Z,59.30
2018-04-29T09:02:22.405Z,59.00
2018-04-29T09:04:49.911Z,60.20
2018-04-29T09:07:18.207Z,58.70
2018-04-29T09:09:46.516Z,57.90
2018-04-29T09:12:14.032Z,57.90
2018-04-29T09:14:41.584Z,58.80
2018-04-29T09:17:09.198Z,56.90
2018-04-29T09:19:36.726Z,57.80
2018-04-29T09:22:05.014Z,56.60
2018-04-29T09:24:33.324Z,56.90
2018-04-29T09:27:00.839Z,56.90
2018-04-29T09:29:28.348Z,55.30
2018-04-29T09:31:55.943Z,53.50
2018-04-29T09:34:23.427Z,53.20
2018-04-29T09:36:50.983Z,52.30
2018-04-29T09:39:18.469Z,54.30
2018-04-29T09:41:46.070Z,53.30
2018-04-29T09:44:13.608Z,52.80
2018-04-29T09:46:41.896Z,53.00
2018-04-29T09:49:10.207Z,53.60
2018-04-29T09:51:37.745Z,53.60
2018-04-29T09:54:06.034Z,54.90
2018-04-29T09:56:33.575Z,54.90
2018-04-29T09:59:01.081Z,56.90
2018-04-29T10:01:28.623Z,55.80
2018-04-29T10:03:56.160Z,57.00
2018-04-29T10:06:24.447Z,57.90
2018-04-29T10:08:52.760Z,57.10
2018-04-29T10:11:21.033Z,57.20
2018-04-29T10:13:48.550Z,57.10
2018-04-29T10:16:16.074Z,58.10
2018-04-29T10:18:43.684Z,57.50
2018-04-29T10:21:11.151Z,60.40
2018-04-29T10:23:40.214Z,56.70
2018-04-29T10:26:07.862Z,56.70
2018-04-29T10:28:35.437Z,59.30
2018-04-29T10:31:03.004Z,59.50
2018-04-29T10:33:30.523Z,58.90
2018-04-29T10:35:58.820Z,59.60
2018-04-29T10:38:27.122Z,58.00
2018-04-29T10:40:54.663Z,58.00
2018-04-29T10:43:22.967Z,56.30
2018-04-29T10:45:50.488Z,56.20
2018-04-29T10:48:18.770Z,54.40
2018-04-29T10:50:46.286Z,54.20
2018-04-29T10:53:13.826Z,55.60
2018-04-29T10:55:41.337Z,54.80
2018-04-29T10:58:08.912Z,56.80
2018-04-29T11:00:36.428Z,56.60
2018-04-29T11:03:03.962Z,55.40
2018-04-29T11:05:32.267Z,54.20
2018-04-29T11:07:59.778Z,54.20
2018-04-29T11:10:27.308Z,56.40
2018-04-29T11:12:54.831Z,56.40
2018-04-29T11:15:22.335Z,55.20
2018-04-29T11:17:49.859Z,55.10
2018-04-29T11:20:18.142Z,54.90
2018-04-29T11:22:46.447Z,55.00
2018-04-29T11:25:13.960Z,55.00
2018-04-29T11:27:41.504Z,55.20
2018-04-29T11:30:09.033Z,56.00
2018-04-29T11:32:36.544Z,54.80
2018-04-29T11:35:04.064Z,53.30
2018-04-29T11:37:31.573Z,54.40
2018-04-29T11:39:59.109Z,54.10
2018-04-29T11:42:26.616Z,54.30
2018-04-29T11:44:54.153Z,53.00
2018-04-29T11:47:21.668Z,52.70
2018-04-29T11:49:49.985Z,52.10
2018-04-29T11:52:17.507Z,52.10
2018-04-29T11:54:45.779Z,49.80
2018-04-29T11:57:13.312Z,50.00
2018-04-29T11:59:40.835Z,52.30
2018-04-29T12:02:08.374Z,49.30
2018-04-29T12:04:35.877Z,47.70
2018-04-29T12:07:03.413Z,49.80
2018-04-29T12:09:31.687Z,50.30
2018-04-29T12:11:59.977Z,51.40
2018-04-29T12:14:28.269Z,48.20
2018-04-29T12:16:55.794Z,48.20
2018-04-29T12:19:23.322Z,47.30
2018-04-29T12:21:50.838Z,47.00
2018-04-29T12:24:19.123Z,46.80
2018-04-29T12:26:47.454Z,47.20
2018-04-29T12:29:14.963Z,47.30
2018-04-29T12:31:43.281Z,47.60
2018-04-29T12:34:10.805Z,47.50
2018-04-29T12:36:39.128Z,45.70
2018-04-29T12:39:06.636Z,45.40
2018-04-29T12:41:34.147Z,46.00
2018-04-29T12:44:01.732Z,46.40
2018-04-29T12:46:29.586Z,45.10
2018-04-29T12:48:57.127Z,45.90
2018-04-29T12:51:25.408Z,44.50
2018-04-29T12:53:53.686Z,44.80
2018-04-29T12:56:21.976Z,44.60
2018-04-29T12:58:49.505Z,44.60
2018-04-29T13:01:17.027Z,44.50
2018-04-29T13:03:44.564Z,43.60
2018-04-29T13:06:12.836Z,43.30
2018-04-29T13:08:41.151Z,41.90
2018-04-29T13:11:08.671Z,41.90
2018-04-29T13:13:36.211Z,41.20
2018-04-29T13:16:03.732Z,43.10
2018-04-29T13:18:31.248Z,43.80
2018-04-29T13:20:58.782Z,44.40
2018-04-29T13:23:26.312Z,43.90
2018-04-29T13:25:54.626Z,43.40
2018-04-29T13:28:22.148Z,43.40
2018-04-29T13:30:50.460Z,44.50
2018-04-29T13:33:17.973Z,44.50
2018-04-29T13:35:45.576Z,43.90
2018-04-29T13:38:13.043Z,44.00
2018-04-29T13:40:40.562Z,42.60
2018-04-29T13:43:08.090Z,42.40
2018-04-29T13:45:35.616Z,42.40
2018-04-29T13:48:03.922Z,42.30
2018-04-29T13:50:31.447Z,42.30
2018-04-29T13:52:59.723Z,42.10
2018-04-29T13:55:28.029Z,43.70
2018-04-29T13:57:56.316Z,41.20
2018-04-29T14:00:23.872Z,41.20
2018-04-29T14:02:52.149Z,40.90
2018-04-29T14:05:20.453Z,40.40
2018-04-29T14:07:47.961Z,40.30
2018-04-29T14:10:15.567Z,41.40
2018-04-29T14:12:43.038Z,41.00
2018-04-29T14:15:10.580Z,41.50
2018-04-29T14:17:38.880Z,41.30
2018-04-29T14:20:06.408Z,41.30
2018-04-29T14:22:33.964Z,41.60
2018-04-29T14:25:01.504Z,41.40
2018-04-29T14:27:29.018Z,40.70
2018-04-29T14:29:57.311Z,40.40
2018-04-29T14:32:24.831Z,40.40
2018-04-29T14:34:52.385Z,41.10
2018-04-29T14:37:19.893Z,41.90
2018-04-29T14:39:48.171Z,41.10
2018-04-29T14:42:16.479Z,39.80
2018-04-29T14:44:44.019Z,39.80
2018-04-29T14:47:12.321Z,39.30
2018-04-29T14:49:39.838Z,39.30
2018-04-29T14:52:07.374Z,40.10
2018-04-29T14:54:34.906Z,41.70
2018-04-29T14:57:02.419Z,41.60
2018-04-29T14:59:29.948Z,42.30
2018-04-29T15:01:57.465Z,42.60
2018-04-29T15:04:25.003Z,42.20
2018-04-29T15:06:52.524Z,41.80
2018-04-29T15:09:20.008Z,40.20
2018-04-29T15:11:47.558Z,40.60
2018-04-29T15:14:15.072Z,40.40
2018-04-29T15:16:42.616Z,39.70
2018-04-29T15:21:37.701Z,40.00
2018-04-29T15:24:05.991Z,41.30
2018-04-29T15:26:33.539Z,41.30
2018-04-29T15:29:01.831Z,41.90
2018-04-29T15:31:29.357Z,41.70
2018-04-29T15:33:56.890Z,42.50
2018-04-29T15:36:24.419Z,42.70
2018-04-29T15:38:52.718Z,43.90
2018-04-29T15:41:20.241Z,43.90
2018-04-29T15:43:47.799Z,45.90
2018-04-29T15:46:15.322Z,45.40
2018-04-29T15:48:42.847Z,45.30
2018-04-29T15:51:11.214Z,45.90
2018-04-29T15:53:39.492Z,47.70
2018-04-29T15:56:07.022Z,47.60
2018-04-29T15:58:34.535Z,46.50
2018-04-29T16:01:02.859Z,44.10
2018-04-29T16:03:30.439Z,44.00
2018-04-29T16:05:57.915Z,44.30
2018-04-29T16:08:25.439Z,47.10
2018-04-29T16:10:52.955Z,45.60
2018-04-29T16:13:21.276Z,38.60
2018-04-29T16:15:48.800Z,38.60
2018-04-29T16:18:16.343Z,37.90
2018-04-29T16:20:43.910Z,36.50
2018-04-29T16:23:11.444Z,37.00
2018-04-29T16:25:38.987Z,36.40
2018-04-29T16:28:06.529Z,36.60
2018-04-29T16:30:34.047Z,35.20
2018-04-29T16:33:01.584Z,35.90
2018-04-29T16:35:29.097Z,36.20
2018-04-29T16:37:56.680Z,35.30
2018-04-29T16:40:24.184Z,35.40
2018-04-29T16:42:51.740Z,36.80
2018-04-29T16:45:19.309Z,34.80
2018-04-29T16:47:46.822Z,34.80
2018-04-29T16:50:14.445Z,37.00
2018-04-29T16:52:41.966Z,35.60
2018-04-29T16:55:09.501Z,37.40
2018-04-29T16:57:37.036Z,38.40
2018-04-29T17:00:04.564Z,38.00
2018-04-29T17:02:32.094Z,40.60
2018-04-29T17:04:59.616Z,41.60
2018-04-29T17:07:27.173Z,41.60
2018-04-29T17:09:55.457Z,41.50
2018-04-29T17:12:23.764Z,42.10
2018-04-29T17:14:51.296Z,42.00
2018-04-29T17:17:19.580Z,42.40
2018-04-29T17:19:47.874Z,42.70
2018-04-29T17:22:15.417Z,42.60
2018-04-29T17:24:43.726Z,36.70
2018-04-29T17:27:11.242Z,36.60
2018-04-29T17:29:38.772Z,38.70
2018-04-29T17:32:06.293Z,39.70
2018-04-29T17:34:34.571Z,38.90
2018-04-29T17:37:02.875Z,40.20
2018-04-29T17:39:30.390Z,40.30
2018-04-29T17:41:57.946Z,38.30
2018-04-29T17:44:25.473Z,36.20
2018-04-29T17:46:53.021Z,34.90
2018-04-29T17:49:20.543Z,34.80
2018-04-29T17:51:48.079Z,35.70
2018-04-29T17:54:15.621Z,35.20
2018-04-29T17:56:43.141Z,36.00
2018-04-29T17:59:10.713Z,34.90
2018-04-29T18:01:38.253Z,35.50
2018-04-29T18:04:05.803Z,35.00
2018-04-29T18:06:33.347Z,34.70
2018-04-29T18:09:00.895Z,35.00
2018-04-29T18:11:29.256Z,35.40
2018-04-29T18:13:58.785Z,35.60
2018-04-29T18:16:26.872Z,35.50
2018-04-29T18:18:54.543Z,36.60
2018-04-29T18:21:22.163Z,36.60
2018-04-29T18:23:49.709Z,36.20
2018-04-29T18:26:17.570Z,37.30
2018-04-29T18:28:45.155Z,36.40
2018-04-29T18:31:12.719Z,36.40
2018-04-29T18:33:40.333Z,37.10
2018-04-29T18:36:07.950Z,38.90
2018-04-29T18:38:35.517Z,37.40
2018-04-29T18:41:03.066Z,37.00
2018-04-29T18:43:30.704Z,37.50
2018-04-29T18:45:58.316Z,37.30
2018-04-29T18:48:26.056Z,38.10
2018-04-29T18:50:54.629Z,36.70
2018-04-29T18:53:22.197Z,36.70
2018-04-29T18:55:49.855Z,36.30
2018-04-29T18:58:17.468Z,37.10
2018-04-29T19:00:45.090Z,37.90
2018-04-29T19:03:12.874Z,37.20
2018-04-29T19:05:59.157Z,37.20
2018-04-29T19:08:26.817Z,37.30
2018-04-29T19:10:55.057Z,37.60
2018-04-29T19:13:24.269Z,40.40
2018-04-29T19:15:53.532Z,40.90
2018-04-29T19:18:21.173Z,40.90
2018-04-29T19:20:49.406Z,41.90
2018-04-29T19:23:17.834Z,43.20
2018-04-29T19:25:45.518Z,42.70
2018-04-29T19:28:13.169Z,43.30
2018-04-29T19:30:41.754Z,43.60
2018-04-29T19:33:09.381Z,43.60
2018-04-29T19:35:37.742Z,45.70
2018-04-29T19:38:05.323Z,45.80
2018-04-29T19:40:33.071Z,43.90
2018-04-29T19:43:00.676Z,44.80
2018-04-29T19:45:28.345Z,45.50
2018-04-29T19:47:56.690Z,44.00
2018-04-29T19:50:24.345Z,44.00
2018-04-29T19:52:52.501Z,42.60
2018-04-29T19:55:20.085Z,42.90
2018-04-29T19:57:47.731Z,43.90
2018-04-29T20:00:15.285Z,43.00
2018-04-29T20:02:42.882Z,43.20
2018-04-29T20:05:10.628Z,45.10
2018-04-29T20:07:38.302Z,44.20
2018-04-29T20:10:05.976Z,43.10
2018-04-29T20:12:33.661Z,43.80
2018-04-29T20:15:01.431Z,44.40
2018-04-29T20:17:29.171Z,42.80
2018-04-29T20:19:56.782Z,43.40
2018-04-29T20:22:24.402Z,43.10
2018-04-29T20:24:52.076Z,45.30
2018-04-29T20:27:19.704Z,44.10
2018-04-29T20:29:47.502Z,43.60
2018-04-29T20:32:15.865Z,44.10
2018-04-29T20:34:43.555Z,43.80
2018-04-29T20:37:11.152Z,45.70
2018-04-29T20:39:40.085Z,43.90
2018-04-29T20:42:08.446Z,44.50
2018-04-29T20:44:36.774Z,43.70
2018-04-29T20:47:05.109Z,43.60
2018-04-29T20:49:32.701Z,43.80
2018-04-29T20:52:01.066Z,44.70
2018-04-29T20:54:29.371Z,45.30
2018-04-29T20:56:57.702Z,45.50
2018-04-29T20:59:25.323Z,45.50
2018-04-29T21:01:53.265Z,43.60
2018-04-29T21:04:20.803Z,43.90
2018-04-29T21:06:48.360Z,43.70
2018-04-29T21:09:15.925Z,44.00
2018-04-29T21:11:43.463Z,43.80
2018-04-29T21:14:11.050Z,44.50
2018-04-29T21:16:38.574Z,44.20
2018-04-29T21:19:06.890Z,44.30
2018-04-29T21:21:34.393Z,44.10
2018-04-29T21:24:01.902Z,44.30
2018-04-29T21:26:29.433Z,45.70
2018-04-29T21:28:56.951Z,46.10
2018-04-29T21:31:24.487Z,46.20
2018-04-29T21:33:52.012Z,46.30
2018-04-29T21:36:19.551Z,46.70
2018-04-29T21:38:47.057Z,46.80
2018-04-29T21:41:15.331Z,48.60
2018-04-29T21:43:43.626Z,49.50
2018-04-29T21:46:11.909Z,49.40
2018-04-29T21:48:40.203Z,50.10
2018-04-29T21:51:07.728Z,50.10
2018-04-29T21:53:35.261Z,49.20
2018-04-29T21:56:02.770Z,49.40
2018-04-29T21:58:31.057Z,50.00
2018-04-29T22:00:59.368Z,49.80
2018-04-29T22:03:26.888Z,49.80
2018-04-29T22:05:54.420Z,49.90
2018-04-29T22:08:21.933Z,49.80
2018-04-29T22:10:49.476Z,51.30
2018-04-29T22:13:17.750Z,49.10
2018-04-29T22:15:45.291Z,49.10
2018-04-29T22:18:12.779Z,50.00
2018-04-29T22:20:40.293Z,50.00
2018-04-29T22:23:07.833Z,50.40
2018-04-29T22:25:36.145Z,50.40
2018-04-29T22:28:03.799Z,50.30
2018-04-29T22:30:31.303Z,50.80
2018-04-29T22:32:58.857Z,50.80
2018-04-29T22:35:26.371Z,50.30
2018-04-29T22:37:54.666Z,49.80
2018-04-29T22:40:22.167Z,49.70
2018-04-29T22:42:49.685Z,49.60
2018-04-29T22:45:17.992Z,50.30
2018-04-29T22:47:45.498Z,50.20
2018-04-29T22:50:13.006Z,49.20
2018-04-29T22:52:40.512Z,50.30
2018-04-29T22:55:08.046Z,50.10
2018-04-29T22:57:35.560Z,49.30
2018-04-29T23:00:03.101Z,48.10
2018-04-29T23:02:30.615Z,49.40
2018-04-29T23:04:58.177Z,49.00
2018-04-29T23:07:25.710Z,49.60
2018-04-29T23:09:53.226Z,50.00
2018-04-29T23:12:20.755Z,50.40
2018-04-29T23:14:49.029Z,50.60
2018-04-29T23:17:16.579Z,50.40
2018-04-29T23:19:44.087Z,50.60
2018-04-29T23:22:12.456Z,50.60
2018-04-29T23:24:40.784Z,50.30
2018-04-29T23:27:08.267Z,50.30
2018-04-29T23:29:35.781Z,50.40
2018-04-29T23:32:03.292Z,50.40
2018-04-29T23:34:30.808Z,50.30
2018-04-29T23:36:58.312Z,50.50
2018-04-29T23:39:25.843Z,50.60
2018-04-29T23:41:53.366Z,50.20
2018-04-29T23:44:21.646Z,50.70
2018-04-29T23:46:49.934Z,50.30
2018-04-29T23:49:18.182Z,50.60
2018-04-29T23:51:45.719Z,50.60
2018-04-29T23:54:13.240Z,50.90
2018-04-29T23:56:41.524Z,51.60
2018-04-29T23:59:09.816Z,51.00
